createdAt,value
2022-11-25T00:00:18.642Z,952.78
2022-11-25T00:01:18.627Z,952.78
2022-11-25T00:02:18.729Z,952.83
2022-11-25T00:03:18.670Z,952.79
2022-11-25T00:04:18.576Z,952.76
2022-11-25T00:05:18.585Z,952.78
2022-11-25T00:06:18.549Z,952.77
2022-11-25T00:07:18.616Z,952.74
2022-11-25T00:08:18.509Z,952.82
2022-11-25T00:09:18.491Z,952.81
2022-11-25T00:10:18.481Z,952.84
2022-11-25T00:11:18.492Z,952.82
2022-11-25T00:12:18.443Z,952.81
2022-11-25T00:13:18.433Z,952.81
2022-11-25T00:14:18.411Z,952.78
2022-11-25T00:15:18.397Z,952.8
2022-11-25T00:16:18.401Z,952.77
2022-11-25T00:17:18.364Z,952.77
2022-11-25T00:18:18.346Z,952.78
2022-11-25T00:19:18.330Z,952.77
2022-11-25T00:20:18.312Z,952.76
2022-11-25T00:21:18.326Z,952.77
2022-11-25T00:22:18.279Z,952.77
2022-11-25T00:23:18.262Z,952.75
2022-11-25T00:24:18.243Z,952.75
2022-11-25T00:25:18.230Z,952.74
2022-11-25T00:26:18.212Z,952.69
2022-11-25T00:27:18.196Z,952.69
2022-11-25T00:28:18.177Z,952.7
2022-11-25T00:29:18.162Z,952.67
2022-11-25T00:30:18.142Z,952.72
2022-11-25T00:31:18.144Z,952.64
2022-11-25T00:32:18.109Z,952.6
2022-11-25T00:33:18.094Z,952.59
2022-11-25T00:34:18.075Z,952.59
2022-11-25T00:35:18.058Z,952.57
2022-11-25T00:36:18.043Z,952.57
2022-11-25T00:37:18.048Z,952.59
2022-11-25T00:38:18.007Z,952.57
2022-11-25T00:39:17.990Z,952.58
2022-11-25T00:40:17.974Z,952.58
2022-11-25T00:41:17.954Z,952.55
2022-11-25T00:42:17.938Z,952.59
2022-11-25T00:43:17.919Z,952.55
2022-11-25T00:44:17.911Z,952.54
2022-11-25T00:45:17.885Z,952.55
2022-11-25T00:46:17.943Z,952.51
2022-11-25T00:47:17.851Z,952.54
2022-11-25T00:48:17.839Z,952.55
2022-11-25T00:49:17.816Z,952.58
2022-11-25T00:50:17.804Z,952.62
2022-11-25T00:51:17.783Z,952.58
2022-11-25T00:52:17.765Z,952.59
2022-11-25T00:53:17.772Z,952.58
2022-11-25T00:54:17.731Z,952.58
2022-11-25T00:55:17.713Z,952.57
2022-11-25T00:56:17.698Z,952.59
2022-11-25T00:57:17.677Z,952.58
2022-11-25T00:58:17.663Z,952.55
2022-11-25T00:59:17.644Z,952.55
2022-11-25T01:00:17.628Z,952.58
2022-11-25T01:01:17.664Z,952.58
2022-11-25T01:02:17.755Z,952.57
2022-11-25T01:03:17.573Z,952.58
2022-11-25T01:04:17.565Z,952.62
2022-11-25T01:05:17.540Z,952.63
2022-11-25T01:06:17.522Z,952.64
2022-11-25T01:07:17.579Z,952.66
2022-11-25T01:08:17.487Z,952.68
2022-11-25T01:09:17.493Z,952.69
2022-11-25T01:10:17.452Z,952.7
2022-11-25T01:11:17.432Z,952.7
2022-11-25T01:12:17.416Z,952.66
2022-11-25T01:13:17.398Z,952.67
2022-11-25T01:14:17.381Z,952.69
2022-11-25T01:15:17.362Z,952.7
2022-11-25T01:16:17.402Z,952.71
2022-11-25T01:17:17.325Z,952.66
2022-11-25T01:18:17.310Z,952.69
2022-11-25T01:19:17.291Z,952.64
2022-11-25T01:20:17.275Z,952.61
2022-11-25T01:21:17.258Z,952.6
2022-11-25T01:22:17.238Z,952.6
2022-11-25T01:23:17.220Z,952.6
2022-11-25T01:24:17.203Z,952.63
2022-11-25T01:25:17.207Z,952.61
2022-11-25T01:26:17.167Z,952.6
2022-11-25T01:27:17.152Z,952.58
2022-11-25T01:28:17.133Z,952.59
2022-11-25T01:29:17.117Z,952.56
2022-11-25T01:30:17.098Z,952.56
2022-11-25T01:31:17.116Z,952.57
2022-11-25T01:32:17.059Z,952.62
2022-11-25T01:33:17.044Z,952.64
2022-11-25T01:34:17.024Z,952.65
2022-11-25T01:35:17.009Z,952.68
2022-11-25T01:36:16.986Z,952.67
2022-11-25T01:37:16.974Z,952.65
2022-11-25T01:38:16.954Z,952.68
2022-11-25T01:39:16.936Z,952.71
2022-11-25T01:40:16.917Z,952.74
2022-11-25T01:41:16.923Z,952.71
2022-11-25T01:42:16.884Z,952.72
2022-11-25T01:43:16.867Z,952.74
2022-11-25T01:44:16.848Z,952.74
2022-11-25T01:45:16.829Z,952.75
2022-11-25T01:46:16.938Z,952.72
2022-11-25T01:47:16.793Z,952.71
2022-11-25T01:48:16.773Z,952.71
2022-11-25T01:49:16.757Z,952.71
2022-11-25T01:50:16.737Z,952.71
2022-11-25T01:51:16.720Z,952.72
2022-11-25T01:52:16.705Z,952.71
2022-11-25T01:53:16.685Z,952.73
2022-11-25T01:54:16.669Z,952.68
2022-11-25T01:55:16.658Z,952.7
2022-11-25T01:56:16.628Z,952.68
2022-11-25T01:57:16.640Z,952.74
2022-11-25T01:58:16.591Z,952.66
2022-11-25T01:59:16.577Z,952.72
2022-11-25T02:00:16.558Z,952.74
2022-11-25T02:01:16.591Z,952.71
2022-11-25T02:02:16.564Z,952.71
2022-11-25T02:03:16.506Z,952.73
2022-11-25T02:04:16.487Z,952.7
2022-11-25T02:05:16.467Z,952.74
2022-11-25T02:06:16.449Z,952.72
2022-11-25T02:07:16.447Z,952.7
2022-11-25T02:08:16.413Z,952.68
2022-11-25T02:09:16.396Z,952.72
2022-11-25T02:10:16.377Z,952.71
2022-11-25T02:11:16.361Z,952.73
2022-11-25T02:12:16.340Z,952.76
2022-11-25T02:13:16.346Z,952.77
2022-11-25T02:14:16.306Z,952.77
2022-11-25T02:15:16.291Z,952.78
2022-11-25T02:16:16.314Z,952.7
2022-11-25T02:17:16.252Z,952.73
2022-11-25T02:18:16.232Z,952.67
2022-11-25T02:19:16.219Z,952.68
2022-11-25T02:20:16.202Z,952.68
2022-11-25T02:21:16.180Z,952.65
2022-11-25T02:22:16.160Z,952.67
2022-11-25T02:23:16.142Z,952.61
2022-11-25T02:24:16.125Z,952.63
2022-11-25T02:25:16.104Z,952.63
2022-11-25T02:26:16.089Z,952.57
2022-11-25T02:27:16.067Z,952.62
2022-11-25T02:28:16.054Z,952.58
2022-11-25T02:29:16.055Z,952.56
2022-11-25T02:30:16.024Z,952.57
2022-11-25T02:31:16.028Z,952.58
2022-11-25T02:32:15.977Z,952.59
2022-11-25T02:33:15.958Z,952.56
2022-11-25T02:34:15.943Z,952.57
2022-11-25T02:35:15.922Z,952.53
2022-11-25T02:36:15.906Z,952.53
2022-11-25T02:37:15.886Z,952.54
2022-11-25T02:38:15.868Z,952.58
2022-11-25T02:39:15.849Z,952.62
2022-11-25T02:40:15.833Z,952.58
2022-11-25T02:41:15.914Z,952.59
2022-11-25T02:42:15.796Z,952.58
2022-11-25T02:43:15.776Z,952.58
2022-11-25T02:44:15.759Z,952.56
2022-11-25T02:45:15.763Z,952.55
2022-11-25T02:46:20.483Z,952.55
2022-11-25T02:47:15.703Z,952.57
2022-11-25T02:48:15.689Z,952.56
2022-11-25T02:49:15.665Z,952.56
2022-11-25T02:50:15.651Z,952.51
2022-11-25T02:51:15.631Z,952.5
2022-11-25T02:52:15.617Z,952.47
2022-11-25T02:53:15.593Z,952.49
2022-11-25T02:54:15.579Z,952.45
2022-11-25T02:55:15.559Z,952.47
2022-11-25T02:56:15.538Z,952.46
2022-11-25T02:57:15.519Z,952.49
2022-11-25T02:58:15.504Z,952.48
2022-11-25T02:59:15.688Z,952.48
2022-11-25T03:00:15.712Z,952.48
2022-11-25T03:01:15.741Z,952.46
2022-11-25T03:02:15.769Z,952.47
2022-11-25T03:03:15.656Z,952.45
2022-11-25T03:04:15.638Z,952.47
2022-11-25T03:05:15.621Z,952.44
2022-11-25T03:06:15.704Z,952.44
2022-11-25T03:07:15.647Z,952.44
2022-11-25T03:08:15.565Z,952.46
2022-11-25T03:09:15.546Z,952.42
2022-11-25T03:10:15.527Z,952.51
2022-11-25T03:11:15.510Z,952.5
2022-11-25T03:12:15.491Z,952.51
2022-11-25T03:13:15.473Z,952.48
2022-11-25T03:14:15.458Z,952.48
2022-11-25T03:15:15.434Z,952.41
2022-11-25T03:16:15.589Z,952.42
2022-11-25T03:17:15.424Z,952.47
2022-11-25T03:18:15.380Z,952.43
2022-11-25T03:19:15.361Z,952.41
2022-11-25T03:20:15.341Z,952.49
2022-11-25T03:21:15.424Z,952.51
2022-11-25T03:22:15.303Z,952.45
2022-11-25T03:23:15.287Z,952.44
2022-11-25T03:24:15.267Z,952.42
2022-11-25T03:25:15.250Z,952.47
2022-11-25T03:26:15.330Z,952.48
2022-11-25T03:27:15.212Z,952.47
2022-11-25T03:28:15.192Z,952.49
2022-11-25T03:29:15.177Z,952.48
2022-11-25T03:30:15.155Z,952.52
2022-11-25T03:31:15.303Z,952.54
2022-11-25T03:32:15.160Z,952.56
2022-11-25T03:33:15.126Z,952.57
2022-11-25T03:50:21.415Z,952.6
2022-11-25T03:51:21.377Z,952.6
2022-11-25T03:52:21.350Z,952.62
2022-11-25T03:53:21.335Z,952.58
2022-11-25T03:54:21.307Z,952.63
2022-11-25T03:55:21.388Z,952.61
2022-11-25T03:56:21.266Z,952.64
2022-11-25T03:57:21.247Z,952.66
2022-11-25T03:58:21.225Z,952.66
2022-11-25T03:59:21.208Z,952.62
2022-11-25T04:00:21.186Z,952.62
2022-11-25T04:01:21.233Z,952.58
2022-11-25T04:02:21.174Z,952.61
2022-11-25T04:03:21.149Z,952.59
2022-11-25T04:04:21.108Z,952.63
2022-11-25T04:05:21.241Z,952.61
2022-11-25T04:06:21.094Z,952.65
2022-11-25T04:07:21.105Z,952.63
2022-11-25T04:08:21.030Z,952.67
2022-11-25T04:09:21.013Z,952.61
2022-11-25T04:10:20.991Z,952.64
2022-11-25T04:11:20.974Z,952.61
2022-11-25T04:12:20.954Z,952.55
2022-11-25T04:13:20.936Z,952.58
2022-11-25T04:14:20.917Z,952.51
2022-11-25T04:15:20.997Z,952.55
2022-11-25T04:16:20.946Z,952.52
2022-11-25T04:17:20.858Z,952.54
2022-11-25T04:18:20.841Z,952.47
2022-11-25T04:19:20.820Z,952.54
2022-11-25T04:20:20.800Z,952.47
2022-11-25T04:21:20.784Z,952.5
2022-11-25T04:22:20.787Z,952.5
2022-11-25T04:23:20.746Z,952.49
2022-11-25T04:24:20.725Z,952.52
2022-11-25T04:25:20.709Z,952.52
2022-11-25T04:26:20.686Z,952.52
2022-11-25T04:27:20.757Z,952.45
2022-11-25T04:28:20.652Z,952.47
2022-11-25T04:29:20.633Z,952.45
2022-11-25T04:30:20.710Z,952.45
2022-11-25T04:31:20.657Z,952.5
2022-11-25T04:32:20.575Z,952.46
2022-11-25T04:33:20.554Z,952.48
2022-11-25T04:34:20.535Z,952.46
2022-11-25T04:35:20.517Z,952.47
2022-11-25T04:36:20.498Z,952.48
2022-11-25T04:37:20.479Z,952.47
2022-11-25T04:38:20.485Z,952.5
2022-11-25T04:39:20.444Z,952.53
2022-11-25T04:40:20.571Z,952.51
2022-11-25T04:41:20.404Z,952.53
2022-11-25T04:42:20.387Z,952.52
2022-11-25T04:43:20.367Z,952.53
2022-11-25T04:44:20.349Z,952.53
2022-11-25T04:45:23.209Z,952.54
2022-11-25T04:46:20.379Z,952.49
2022-11-25T04:47:20.290Z,952.53
2022-11-25T04:48:20.272Z,952.52
2022-11-25T04:49:20.252Z,952.54
2022-11-25T04:50:20.355Z,952.54
2022-11-25T04:51:20.216Z,952.52
2022-11-25T04:52:20.197Z,952.56
2022-11-25T04:53:20.177Z,952.53
2022-11-25T04:54:20.187Z,952.56
2022-11-25T04:55:20.139Z,952.57
2022-11-25T04:56:20.124Z,952.55
2022-11-25T04:57:20.104Z,952.56
2022-11-25T04:58:20.086Z,952.59
2022-11-25T04:59:20.063Z,952.57
2022-11-25T05:00:20.147Z,952.62
2022-11-25T05:01:20.071Z,952.58
2022-11-25T05:02:20.089Z,952.57
2022-11-25T05:03:19.990Z,952.61
2022-11-25T05:04:19.973Z,952.62
2022-11-25T05:05:19.954Z,952.62
2022-11-25T05:06:19.934Z,952.62
2022-11-25T05:07:19.930Z,952.66
2022-11-25T05:08:19.898Z,952.68
2022-11-25T05:09:19.878Z,952.71
2022-11-25T05:10:19.886Z,952.68
2022-11-25T05:11:19.855Z,952.69
2022-11-25T05:12:19.823Z,952.69
2022-11-25T05:13:19.803Z,952.69
2022-11-25T05:14:19.785Z,952.66
2022-11-25T05:15:19.769Z,952.64
2022-11-25T05:16:19.777Z,952.65
2022-11-25T05:17:19.734Z,952.59
2022-11-25T05:18:19.710Z,952.56
2022-11-25T05:19:19.689Z,952.61
2022-11-25T05:20:19.671Z,952.59
2022-11-25T05:21:19.652Z,952.57
2022-11-25T05:22:19.634Z,952.59
2022-11-25T05:23:19.618Z,952.63
2022-11-25T05:24:19.598Z,952.6
2022-11-25T05:25:19.577Z,952.61
2022-11-25T05:26:19.585Z,952.61
2022-11-25T05:27:19.540Z,952.6
2022-11-25T05:28:19.523Z,952.63
2022-11-25T05:29:19.504Z,952.59
2022-11-25T05:30:19.485Z,952.59
2022-11-25T05:31:19.909Z,952.59
2022-11-25T05:32:19.775Z,952.66
2022-11-25T05:33:19.754Z,952.65
2022-11-25T05:34:19.734Z,952.63
2022-11-25T05:35:19.718Z,952.63
2022-11-25T05:36:19.697Z,952.62
2022-11-25T05:37:24.055Z,952.61
2022-11-25T05:38:19.660Z,952.63
2022-11-25T05:39:19.643Z,952.63
2022-11-25T05:40:19.622Z,952.62
2022-11-25T05:41:19.606Z,952.59
2022-11-25T05:42:19.611Z,952.59
2022-11-25T05:43:19.570Z,952.57
2022-11-25T05:44:22.792Z,952.63
2022-11-25T05:45:19.531Z,952.58
2022-11-25T05:46:19.610Z,952.62
2022-11-25T05:47:19.495Z,952.65
2022-11-25T05:48:19.474Z,952.67
2022-11-25T05:49:19.457Z,952.69
2022-11-25T05:50:19.438Z,952.65
2022-11-25T05:51:19.419Z,952.7
2022-11-25T05:52:19.400Z,952.72
2022-11-25T05:53:19.382Z,952.71
2022-11-25T05:54:19.363Z,952.74
2022-11-25T05:55:19.345Z,952.7
2022-11-25T05:56:19.326Z,952.73
2022-11-25T05:57:19.308Z,952.75
2022-11-25T05:58:19.313Z,952.78
2022-11-25T05:59:19.273Z,952.76
2022-11-25T06:00:23.529Z,952.79
2022-11-25T06:01:19.260Z,952.77
2022-11-25T06:02:19.254Z,952.76
2022-11-25T06:03:19.268Z,952.77
2022-11-25T06:04:19.176Z,952.75
2022-11-25T06:05:19.159Z,952.73
2022-11-25T06:06:19.139Z,952.73
2022-11-25T06:07:19.178Z,952.76
2022-11-25T06:08:19.103Z,952.73
2022-11-25T06:09:19.086Z,952.77
2022-11-25T06:10:19.063Z,952.73
2022-11-25T06:11:19.046Z,952.74
2022-11-25T06:12:19.027Z,952.69
2022-11-25T06:13:19.010Z,952.68
2022-11-25T06:14:19.013Z,952.78
2022-11-25T06:15:18.972Z,952.75
2022-11-25T06:16:19.005Z,952.74
2022-11-25T06:17:18.933Z,952.73
2022-11-25T06:18:18.915Z,952.77
2022-11-25T06:19:18.900Z,952.77
2022-11-25T06:20:18.878Z,952.76
2022-11-25T06:21:18.859Z,952.79
2022-11-25T06:22:18.841Z,952.79
2022-11-25T06:23:18.823Z,952.82
2022-11-25T06:24:18.805Z,952.81
2022-11-25T06:25:19.183Z,952.8
2022-11-25T06:26:19.171Z,952.87
2022-11-25T06:27:19.144Z,952.84
2022-11-25T06:28:19.145Z,952.89
2022-11-25T06:29:19.108Z,952.87
2022-11-25T06:30:19.114Z,952.84
2022-11-25T06:31:19.250Z,952.82
2022-11-25T06:32:19.052Z,952.88
2022-11-25T06:33:19.033Z,952.87
2022-11-25T06:34:19.014Z,952.82
2022-11-25T06:35:18.994Z,952.83
2022-11-25T06:36:18.977Z,952.84
2022-11-25T06:37:18.956Z,952.87
2022-11-25T06:38:18.940Z,952.89
2022-11-25T06:39:18.920Z,952.9
2022-11-25T06:40:18.902Z,952.85
2022-11-25T06:41:18.881Z,952.85
2022-11-25T06:42:18.864Z,952.87
2022-11-25T06:43:18.846Z,952.89
2022-11-25T06:44:18.827Z,952.9
2022-11-25T06:45:18.806Z,952.94
2022-11-25T06:46:24.309Z,952.96
2022-11-25T06:47:18.770Z,952.98
2022-11-25T06:48:18.755Z,952.94
2022-11-25T06:49:18.731Z,952.96
2022-11-25T06:50:18.715Z,953
2022-11-25T06:51:18.697Z,952.97
2022-11-25T06:52:18.674Z,953.01
2022-11-25T06:53:22.741Z,953
2022-11-25T06:54:18.642Z,953.02
2022-11-25T06:55:18.619Z,953.05
2022-11-25T06:56:18.601Z,953.01
2022-11-25T06:57:18.580Z,952.97
2022-11-25T06:58:34.731Z,952.97
2022-11-25T06:59:18.544Z,952.99
2022-11-25T07:00:18.910Z,952.96
2022-11-25T07:01:18.970Z,953
2022-11-25T07:02:18.942Z,952.99
2022-11-25T07:03:18.877Z,952.99
2022-11-25T07:04:18.836Z,952.96
2022-11-25T07:05:18.814Z,952.99
2022-11-25T07:06:18.798Z,952.94
2022-11-25T07:07:18.845Z,952.99
2022-11-25T07:08:18.760Z,953.02
2022-11-25T07:09:18.740Z,953.1
2022-11-25T07:10:18.722Z,953.07
2022-11-25T07:11:18.704Z,953.06
2022-11-25T07:12:18.696Z,953.06
2022-11-25T07:13:19.454Z,953.12
2022-11-25T07:14:19.436Z,953.13
2022-11-25T07:15:19.418Z,953.14
2022-11-25T07:16:19.545Z,953.16
2022-11-25T07:17:19.380Z,953.15
2022-11-25T07:18:19.387Z,953.21
2022-11-25T07:19:19.344Z,953.21
2022-11-25T07:20:19.322Z,953.26
2022-11-25T07:21:19.307Z,953.22
2022-11-25T07:22:19.286Z,953.32
2022-11-25T07:23:19.268Z,953.3
2022-11-25T07:24:19.248Z,953.34
2022-11-25T07:25:19.232Z,953.36
2022-11-25T07:26:19.220Z,953.36
2022-11-25T07:27:19.194Z,953.39
2022-11-25T07:28:19.174Z,953.37
2022-11-25T07:31:34.867Z,953.34
2022-11-25T07:32:34.635Z,953.28
2022-11-25T07:33:34.677Z,953.37
2022-11-25T07:34:34.599Z,953.34
2022-11-25T07:35:34.580Z,953.33
2022-11-25T07:36:34.562Z,953.36
2022-11-25T07:37:34.543Z,953.35
2022-11-25T07:38:34.524Z,953.31
2022-11-25T07:39:34.985Z,953.35
2022-11-25T07:40:34.487Z,953.36
2022-11-25T07:41:34.568Z,953.36
2022-11-25T07:42:34.451Z,953.32
2022-11-25T07:43:34.431Z,953.33
2022-11-25T07:44:34.414Z,953.32
2022-11-25T07:45:34.395Z,953.31
2022-11-25T07:46:34.433Z,953.31
2022-11-25T07:47:34.358Z,953.34
2022-11-25T07:48:34.341Z,953.28
2022-11-25T07:49:34.641Z,953.35
2022-11-25T07:50:34.304Z,953.32
2022-11-25T07:51:34.286Z,953.29
2022-11-25T07:52:34.268Z,953.31
2022-11-25T07:53:34.248Z,953.32
2022-11-25T07:54:34.232Z,953.36
2022-11-25T07:55:34.223Z,953.36
2022-11-25T07:56:34.294Z,953.36
2022-11-25T07:57:34.185Z,953.36
2022-11-25T07:58:34.157Z,953.4
2022-11-25T07:59:34.561Z,953.37
2022-11-25T08:00:34.123Z,953.41
2022-11-25T08:01:34.123Z,953.34
2022-11-25T08:02:34.126Z,953.36
2022-11-25T08:03:34.064Z,953.44
2022-11-25T08:04:34.047Z,953.41
2022-11-25T08:05:34.618Z,953.42
2022-11-25T08:06:34.575Z,953.41
2022-11-25T08:07:36.610Z,953.45
2022-11-25T08:08:34.537Z,953.43
2022-11-25T08:09:34.805Z,953.42
2022-11-25T08:10:34.502Z,953.42
2022-11-25T08:11:34.484Z,953.47
2022-11-25T08:12:34.464Z,953.44
2022-11-25T08:13:34.448Z,953.45
2022-11-25T08:14:34.429Z,953.52
2022-11-25T08:15:34.477Z,953.43
2022-11-25T08:16:34.411Z,953.45
2022-11-25T08:17:34.374Z,953.48
2022-11-25T08:18:34.355Z,953.47
2022-11-25T08:19:34.655Z,953.42
2022-11-25T08:20:34.318Z,953.44
2022-11-25T08:21:34.327Z,953.46
2022-11-25T08:22:34.282Z,953.49
2022-11-25T08:23:34.265Z,953.48
2022-11-25T08:24:34.246Z,953.47
2022-11-25T08:25:34.229Z,953.45
2022-11-25T08:26:34.209Z,953.46
2022-11-25T08:27:34.194Z,953.46
2022-11-25T08:28:34.173Z,953.46
2022-11-25T08:29:34.410Z,953.46
2022-11-25T08:30:34.138Z,953.43
2022-11-25T08:31:34.191Z,953.45
2022-11-25T08:32:34.101Z,953.41
2022-11-25T08:33:34.084Z,953.4
2022-11-25T08:34:34.066Z,953.43
2022-11-25T08:35:34.046Z,953.44
2022-11-25T08:36:34.035Z,953.48
2022-11-25T08:37:34.178Z,953.52
2022-11-25T08:38:33.993Z,953.48
2022-11-25T08:39:51.576Z,953.51
2022-11-25T08:40:33.958Z,953.54
2022-11-25T08:41:33.942Z,953.55
2022-11-25T08:42:33.922Z,953.55
2022-11-25T08:43:33.905Z,953.56
2022-11-25T08:44:33.886Z,953.51
2022-11-25T08:45:33.871Z,953.55
2022-11-25T08:46:33.952Z,953.61
2022-11-25T08:47:33.837Z,953.57
2022-11-25T08:48:33.816Z,953.57
2022-11-25T08:49:40.335Z,953.57
2022-11-25T08:50:33.780Z,953.54
2022-11-25T08:51:33.765Z,953.58
2022-11-25T08:52:33.745Z,953.55
2022-11-25T08:53:33.772Z,953.54
2022-11-25T08:54:33.710Z,953.58
2022-11-25T08:55:33.694Z,953.58
2022-11-25T08:56:33.675Z,953.61
2022-11-25T08:57:33.659Z,953.61
2022-11-25T08:58:33.649Z,953.62
2022-11-25T08:59:33.722Z,953.56
2022-11-25T09:00:33.605Z,953.57
2022-11-25T09:01:33.628Z,953.62
2022-11-25T09:02:33.613Z,953.62
2022-11-25T09:03:33.553Z,953.66
2022-11-25T09:04:33.534Z,953.7
2022-11-25T09:05:33.516Z,953.7
2022-11-25T09:06:33.502Z,953.71
2022-11-25T09:07:33.520Z,953.72
2022-11-25T09:08:33.464Z,953.76
2022-11-25T09:09:33.476Z,953.71
2022-11-25T09:10:33.432Z,953.72
2022-11-25T09:11:33.498Z,953.71
2022-11-25T09:12:33.398Z,953.71
2022-11-25T09:13:33.417Z,953.77
2022-11-25T09:14:33.365Z,953.76
2022-11-25T09:15:33.345Z,953.81
2022-11-25T09:16:33.372Z,953.83
2022-11-25T09:17:33.309Z,953.83
2022-11-25T09:18:33.295Z,953.84
2022-11-25T09:19:33.358Z,953.84
2022-11-25T09:20:33.262Z,953.84
2022-11-25T09:21:33.242Z,953.89
2022-11-25T09:22:33.227Z,953.84
2022-11-25T09:23:33.207Z,953.81
2022-11-25T09:24:33.191Z,953.84
2022-11-25T09:25:33.198Z,953.9
2022-11-25T09:26:33.157Z,953.88
2022-11-25T09:27:33.138Z,953.86
2022-11-25T09:28:33.123Z,953.85
2022-11-25T09:29:33.213Z,953.89
2022-11-25T09:30:33.088Z,953.89
2022-11-25T09:31:33.117Z,953.96
2022-11-25T09:32:33.057Z,953.9
2022-11-25T09:33:33.036Z,953.95
2022-11-25T09:34:33.020Z,953.95
2022-11-25T09:35:33.002Z,953.94
2022-11-25T09:36:32.986Z,953.95
2022-11-25T09:37:32.967Z,953.96
2022-11-25T09:38:32.953Z,953.9
2022-11-25T09:39:32.935Z,953.89
2022-11-25T09:40:32.920Z,953.93
2022-11-25T09:41:33.594Z,953.86
2022-11-25T09:42:33.556Z,953.91
2022-11-25T09:43:33.536Z,953.9
2022-11-25T09:44:33.521Z,953.85
2022-11-25T09:45:33.503Z,953.86
2022-11-25T09:46:33.538Z,953.82
2022-11-25T09:47:33.469Z,953.82
2022-11-25T09:48:33.454Z,953.81
2022-11-25T09:49:33.464Z,953.79
2022-11-25T09:50:33.419Z,953.86
2022-11-25T09:51:33.404Z,953.8
2022-11-25T09:52:33.386Z,953.82
2022-11-25T09:53:33.369Z,953.82
2022-11-25T09:54:33.356Z,953.84
2022-11-25T09:55:33.336Z,953.81
2022-11-25T09:56:33.317Z,953.86
2022-11-25T09:57:33.340Z,953.83
2022-11-25T09:58:33.284Z,953.82
2022-11-25T09:59:33.405Z,953.83
2022-11-25T10:00:33.250Z,953.82
2022-11-25T10:01:33.236Z,953.86
2022-11-25T10:02:33.326Z,953.83
2022-11-25T10:03:33.331Z,953.82
2022-11-25T10:04:33.184Z,953.77
2022-11-25T10:05:33.176Z,953.82
2022-11-25T10:06:33.237Z,953.77
2022-11-25T10:07:33.136Z,953.78
2022-11-25T10:08:33.119Z,953.77
2022-11-25T10:09:33.104Z,953.75
2022-11-25T10:10:33.087Z,953.71
2022-11-25T10:11:33.071Z,953.74
2022-11-25T10:12:33.051Z,953.67
2022-11-25T10:13:33.061Z,953.72
2022-11-25T10:14:33.019Z,953.68
2022-11-25T10:15:33.004Z,953.74
2022-11-25T10:16:33.017Z,953.7
2022-11-25T10:17:32.973Z,953.65
2022-11-25T10:18:32.954Z,953.66
2022-11-25T10:19:32.940Z,953.71
2022-11-25T10:20:32.922Z,953.76
2022-11-25T10:21:32.910Z,953.69
2022-11-25T10:22:32.890Z,953.68
2022-11-25T10:23:32.878Z,953.72
2022-11-25T10:24:35.990Z,953.67
2022-11-25T10:25:32.844Z,953.67
2022-11-25T10:26:32.839Z,953.74
2022-11-25T10:27:32.812Z,953.72
2022-11-25T10:28:32.797Z,953.75
2022-11-25T10:29:32.802Z,953.78
2022-11-25T10:30:32.761Z,953.8
2022-11-25T10:31:32.819Z,953.81
2022-11-25T10:32:32.729Z,953.86
2022-11-25T10:33:32.716Z,953.87
2022-11-25T10:34:32.698Z,953.92
2022-11-25T10:35:32.697Z,953.92
2022-11-25T10:36:32.666Z,953.89
2022-11-25T10:37:32.656Z,953.88
2022-11-25T10:38:32.640Z,953.87
2022-11-25T10:39:32.671Z,953.91
2022-11-25T10:40:32.653Z,953.88
2022-11-25T10:41:32.639Z,953.88
2022-11-25T10:42:32.715Z,953.8
2022-11-25T10:43:32.611Z,953.74
2022-11-25T10:44:32.594Z,953.79
2022-11-25T10:45:32.614Z,953.76
2022-11-25T10:46:49.987Z,953.74
2022-11-25T10:47:32.601Z,953.71
2022-11-25T10:48:32.528Z,953.68
2022-11-25T10:49:32.512Z,953.69
2022-11-25T10:50:32.496Z,953.64
2022-11-25T10:51:32.481Z,953.67
2022-11-25T10:52:32.468Z,953.66
2022-11-25T10:53:32.453Z,953.63
2022-11-25T10:54:32.435Z,953.7
2022-11-25T10:55:32.419Z,953.64
2022-11-25T10:56:32.405Z,953.62
2022-11-25T10:57:32.387Z,953.65
2022-11-25T10:58:32.372Z,953.61
2022-11-25T10:59:32.355Z,953.62
2022-11-25T11:00:32.342Z,953.57
2022-11-25T11:01:32.431Z,953.61
2022-11-25T11:02:32.312Z,953.61
2022-11-25T11:03:32.293Z,953.62
2022-11-25T11:04:32.280Z,953.62
2022-11-25T11:05:32.262Z,953.6
2022-11-25T11:06:32.254Z,953.6
2022-11-25T11:07:32.275Z,953.56
2022-11-25T11:08:32.217Z,953.58
2022-11-25T11:09:32.200Z,953.57
2022-11-25T11:10:32.185Z,953.57
2022-11-25T11:11:32.170Z,953.54
2022-11-25T11:12:32.161Z,953.61
2022-11-25T11:13:32.141Z,953.6
2022-11-25T11:14:32.126Z,953.56
2022-11-25T11:15:32.110Z,953.57
2022-11-25T11:16:32.153Z,953.57
2022-11-25T11:17:36.259Z,953.59
2022-11-25T11:18:32.065Z,953.53
2022-11-25T11:19:32.049Z,953.54
2022-11-25T11:20:32.037Z,953.54
2022-11-25T11:21:32.018Z,953.56
2022-11-25T11:22:32.105Z,953.51
2022-11-25T11:23:31.988Z,953.53
2022-11-25T11:24:31.974Z,953.51
2022-11-25T11:25:31.958Z,953.51
2022-11-25T11:26:31.945Z,953.5
2022-11-25T11:27:31.929Z,953.49
2022-11-25T11:28:31.916Z,953.5
2022-11-25T11:29:31.903Z,953.46
2022-11-25T11:30:31.905Z,953.43
2022-11-25T11:31:31.885Z,953.39
2022-11-25T11:32:31.856Z,953.44
2022-11-25T11:33:31.868Z,953.39
2022-11-25T11:34:31.828Z,953.38
2022-11-25T11:35:31.812Z,953.4
2022-11-25T11:36:31.795Z,953.38
2022-11-25T11:37:31.783Z,953.41
2022-11-25T11:38:31.768Z,953.37
2022-11-25T11:39:31.753Z,953.42
2022-11-25T11:40:31.742Z,953.39
2022-11-25T11:41:31.725Z,953.37
2022-11-25T11:42:31.706Z,953.36
2022-11-25T11:43:31.695Z,953.29
2022-11-25T11:44:31.679Z,953.4
2022-11-25T11:45:31.666Z,953.35
2022-11-25T11:46:31.674Z,953.31
2022-11-25T11:47:31.636Z,953.35
2022-11-25T11:48:31.621Z,953.32
2022-11-25T11:49:31.637Z,953.3
2022-11-25T11:50:31.592Z,953.33
2022-11-25T11:51:31.579Z,953.35
2022-11-25T11:52:31.562Z,953.39
2022-11-25T11:53:31.548Z,953.33
2022-11-25T11:54:31.535Z,953.35
2022-11-25T11:55:31.520Z,953.36
2022-11-25T11:56:35.827Z,953.32
2022-11-25T11:57:31.490Z,953.35
2022-11-25T11:58:31.475Z,953.33
2022-11-25T11:59:31.461Z,953.37
2022-11-25T12:00:31.445Z,953.38
2022-11-25T12:01:31.476Z,953.29
2022-11-25T12:02:31.508Z,953.36
2022-11-25T12:03:31.431Z,953.4
2022-11-25T12:04:31.386Z,953.37
2022-11-25T12:05:31.408Z,953.37
2022-11-25T12:06:31.356Z,953.4
2022-11-25T12:07:31.394Z,953.39
2022-11-25T12:08:31.329Z,953.44
2022-11-25T12:09:31.314Z,953.41
2022-11-25T12:10:31.301Z,953.38
2022-11-25T12:11:31.286Z,953.44
2022-11-25T12:12:31.267Z,953.46
2022-11-25T12:13:31.255Z,953.44
2022-11-25T12:14:31.239Z,953.44
2022-11-25T12:15:31.228Z,953.42
2022-11-25T12:16:31.299Z,953.46
2022-11-25T12:17:31.197Z,953.46
2022-11-25T12:18:31.192Z,953.44
2022-11-25T12:19:31.166Z,953.44
2022-11-25T12:20:31.151Z,953.38
2022-11-25T12:21:31.162Z,953.43
2022-11-25T12:22:31.119Z,953.43
2022-11-25T12:23:31.106Z,953.41
2022-11-25T12:24:31.093Z,953.48
2022-11-25T12:25:31.075Z,953.48
2022-11-25T12:26:31.062Z,953.54
2022-11-25T12:27:31.195Z,953.47
2022-11-25T12:28:31.033Z,953.45
2022-11-25T12:29:31.016Z,953.48
2022-11-25T12:30:31.004Z,953.55
2022-11-25T12:31:31.036Z,953.51
2022-11-25T12:32:30.973Z,953.5
2022-11-25T12:33:30.955Z,953.47
2022-11-25T12:34:30.944Z,953.5
2022-11-25T12:35:30.926Z,953.52
2022-11-25T12:36:30.912Z,953.51
2022-11-25T12:37:30.919Z,953.52
2022-11-25T12:38:30.883Z,953.51
2022-11-25T12:39:30.868Z,953.49
2022-11-25T12:40:30.853Z,953.48
2022-11-25T12:41:30.836Z,953.46
2022-11-25T12:42:30.823Z,953.52
2022-11-25T12:43:30.806Z,953.44
2022-11-25T12:44:30.792Z,953.48
2022-11-25T12:45:30.807Z,953.47
2022-11-25T12:46:30.762Z,953.49
2022-11-25T12:47:30.744Z,953.5
2022-11-25T12:48:30.731Z,953.49